sensor_id;sensor_type;location;lat;lon;timestamp;pressure;altitude;pressure_sealevel;temperature;humidity
75460;BME280;64039;53.060;9.342;2023-04-01T00:01:32;99055.88;;;9.47;100.00
75460;BME280;64039;53.060;9.342;2023-04-01T00:03:57;99055.91;;;9.42;100.00
75460;BME280;64039;53.060;9.342;2023-04-01T00:06:23;99055.91;;;9.45;100.00
75460;BME280;64039;53.060;9.342;2023-04-01T00:08:49;99062.84;;;9.41;100.00
75460;BME280;64039;53.060;9.342;2023-04-01T00:11:15;99056.78;;;9.47;100.00
75460;BME280;64039;53.060;9.342;2023-04-01T00:13:42;99055.03;;;9.48;100.00
75460;BME280;64039;53.060;9.342;2023-04-01T00:16:08;99055.00;;;9.44;100.00
75460;BME280;64039;53.060;9.342;2023-04-01T00:18:33;99059.38;;;9.38;100.00
75460;BME280;64039;53.060;9.342;2023-04-01T00:20:59;99059.34;;;9.41;100.00
75460;BME280;64039;53.060;9.342;2023-04-01T00:23:25;99050.72;;;9.39;100.00
75460;BME280;64039;53.060;9.342;2023-04-01T00:25:51;99062.84;;;9.38;100.00
75460;BME280;64039;53.060;9.342;2023-04-01T00:28:18;99047.25;;;9.37;100.00
75460;BME280;64039;53.060;9.342;2023-04-01T00:30:44;99052.44;;;9.43;100.00
75460;BME280;64039;53.060;9.342;2023-04-01T00:33:10;99056.78;;;9.38;100.00
75460;BME280;64039;53.060;9.342;2023-04-01T00:35:35;99052.41;;;9.57;100.00
75460;BME280;64039;53.060;9.342;2023-04-01T00:38:02;99048.94;;;9.58;100.00
75460;BME280;64039;53.060;9.342;2023-04-01T00:40:30;99047.25;;;9.46;100.00
75460;BME280;64039;53.060;9.342;2023-04-01T00:42:55;99050.72;;;9.43;100.00
75460;BME280;64039;53.060;9.342;2023-04-01T00:45:46;99049.84;;;9.43;100.00
75460;BME280;64039;53.060;9.342;2023-04-01T00:48:14;99048.13;;;9.34;100.00
75460;BME280;64039;53.060;9.342;2023-04-01T00:50:46;99051.56;;;9.47;100.00
75460;BME280;64039;53.060;9.342;2023-04-01T00:53:13;99053.31;;;9.43;100.00
75460;BME280;64039;53.060;9.342;2023-04-01T00:55:44;99049.81;;;9.44;100.00
75460;BME280;64039;53.060;9.342;2023-04-01T00:58:15;99049.03;;;9.32;100.00
75460;BME280;64039;53.060;9.342;2023-04-01T01:00:45;99046.41;;;9.38;100.00
75460;BME280;64039;53.060;9.342;2023-04-01T01:03:13;99050.72;;;9.40;100.00
75460;BME280;64039;53.060;9.342;2023-04-01T01:06:07;99053.31;;;9.28;100.00
75460;BME280;64039;53.060;9.342;2023-04-01T01:11:22;99053.31;;;9.37;100.00
75460;BME280;64039;53.060;9.342;2023-04-01T01:16:42;99052.47;;;9.32;100.00
75460;BME280;64039;53.060;9.342;2023-04-01T01:25:29;99047.25;;;9.38;100.00
75460;BME280;64039;53.060;9.342;2023-04-01T01:28:13;99049.84;;;9.46;100.00
75460;BME280;64039;53.060;9.342;2023-04-01T01:33:53;99051.56;;;9.47;100.00
75460;BME280;64039;53.060;9.342;2023-04-01T01:36:26;99049.00;;;9.33;100.00
75460;BME280;64039;53.060;9.342;2023-04-01T01:38:55;99047.28;;;9.35;100.00
75460;BME280;64039;53.060;9.342;2023-04-01T01:41:23;99044.66;;;9.37;100.00
75460;BME280;64039;53.060;9.342;2023-04-01T01:43:53;99053.34;;;9.34;100.00
75460;BME280;64039;53.060;9.342;2023-04-01T01:46:24;99052.47;;;9.37;100.00
75460;BME280;64039;53.060;9.342;2023-04-01T01:48:51;99059.34;;;9.49;100.00
75460;BME280;64039;53.060;9.342;2023-04-01T01:51:18;99055.03;;;9.48;100.00
75460;BME280;64039;53.060;9.342;2023-04-01T01:53:45;99061.97;;;9.36;100.00
75460;BME280;64039;53.060;9.342;2023-04-01T01:56:11;99051.59;;;9.35;100.00
75460;BME280;64039;53.060;9.342;2023-04-01T01:58:46;99058.50;;;9.42;100.00
75460;BME280;64039;53.060;9.342;2023-04-01T02:01:18;99055.91;;;9.42;100.00
75460;BME280;64039;53.060;9.342;2023-04-01T02:03:45;99061.13;;;9.39;100.00
75460;BME280;64039;53.060;9.342;2023-04-01T02:06:18;99059.41;;;9.25;100.00
75460;BME280;64039;53.060;9.342;2023-04-01T02:08:48;99061.09;;;9.43;100.00
75460;BME280;64039;53.060;9.342;2023-04-01T02:11:18;99060.22;;;9.44;100.00
75460;BME280;64039;53.060;9.342;2023-04-01T02:16:39;99067.16;;;9.41;100.00
75460;BME280;64039;53.060;9.342;2023-04-01T02:19:07;99069.75;;;9.41;100.00
75460;BME280;64039;53.060;9.342;2023-04-01T02:21:34;99069.78;;;9.32;100.00
75460;BME280;64039;53.060;9.342;2023-04-01T02:24:06;99064.56;;;9.30;100.00
75460;BME280;64039;53.060;9.342;2023-04-01T02:26:34;99063.69;;;9.33;100.00
75460;BME280;64039;53.060;9.342;2023-04-01T02:29:01;99060.28;;;9.31;100.00
75460;BME280;64039;53.060;9.342;2023-04-01T02:31:29;99062.84;;;9.34;100.00
75460;BME280;64039;53.060;9.342;2023-04-01T02:33:55;99062.84;;;9.38;100.00
75460;BME280;64039;53.060;9.342;2023-04-01T02:36:21;99062.84;;;9.37;100.00
75460;BME280;64039;53.060;9.342;2023-04-01T02:38:48;99068.91;;;9.40;100.00
75460;BME280;64039;53.060;9.342;2023-04-01T02:41:16;99070.59;;;9.48;100.00
75460;BME280;64039;53.060;9.342;2023-04-01T02:43:41;99070.63;;;9.43;100.00
75460;BME280;64039;53.060;9.342;2023-04-01T02:46:07;99079.25;;;9.47;100.00
75460;BME280;64039;53.060;9.342;2023-04-01T02:48:32;99075.78;;;9.44;100.00
75460;BME280;64039;53.060;9.342;2023-04-01T02:50:58;99077.56;;;9.33;100.00
75460;BME280;64039;53.060;9.342;2023-04-01T02:53:23;99074.97;;;9.32;100.00
75460;BME280;64039;53.060;9.342;2023-04-01T02:55:49;99083.59;;;9.38;100.00
75460;BME280;64039;53.060;9.342;2023-04-01T02:58:18;99078.41;;;9.43;100.00
75460;BME280;64039;53.060;9.342;2023-04-01T03:00:44;99079.28;;;9.31;100.00
75460;BME280;64039;53.060;9.342;2023-04-01T03:03:10;99084.47;;;9.40;100.00
75460;BME280;64039;53.060;9.342;2023-04-01T03:05:35;99081.88;;;9.42;100.00
75460;BME280;64039;53.060;9.342;2023-04-01T03:08:01;99084.47;;;9.43;100.00
75460;BME280;64039;53.060;9.342;2023-04-01T03:10:27;99091.41;;;9.37;100.00
75460;BME280;64039;53.060;9.342;2023-04-01T03:12:53;99085.31;;;9.41;100.00
75460;BME280;64039;53.060;9.342;2023-04-01T03:15:18;99094.88;;;9.39;100.00
75460;BME280;64039;53.060;9.342;2023-04-01T03:17:43;99092.28;;;9.36;100.00
75460;BME280;64039;53.060;9.342;2023-04-01T03:20:10;99094.00;;;9.34;100.00
75460;BME280;64039;53.060;9.342;2023-04-01T03:22:36;99096.59;;;9.32;100.00
75460;BME280;64039;53.060;9.342;2023-04-01T03:25:03;99090.56;;;9.27;100.00
75460;BME280;64039;53.060;9.342;2023-04-01T03:27:29;99096.59;;;9.37;100.00
75460;BME280;64039;53.060;9.342;2023-04-01T03:29:54;99100.94;;;9.38;100.00
75460;BME280;64039;53.060;9.342;2023-04-01T03:32:20;99095.72;;;9.36;100.00
75460;BME280;64039;53.060;9.342;2023-04-01T03:34:45;99100.06;;;9.39;100.00
75460;BME280;64039;53.060;9.342;2023-04-01T03:37:10;99098.34;;;9.25;100.00
75460;BME280;64039;53.060;9.342;2023-04-01T03:39:36;99094.00;;;9.32;100.00
75460;BME280;64039;53.060;9.342;2023-04-01T03:42:02;99105.25;;;9.31;100.00
75460;BME280;64039;53.060;9.342;2023-04-01T03:44:31;99096.63;;;9.31;100.00
75460;BME280;64039;53.060;9.342;2023-04-01T03:46:57;99107.00;;;9.32;100.00
75460;BME280;64039;53.060;9.342;2023-04-01T03:49:22;99104.41;;;9.23;100.00
75460;BME280;64039;53.060;9.342;2023-04-01T03:51:48;99113.91;;;9.21;100.00
75460;BME280;64039;53.060;9.342;2023-04-01T03:54:13;99107.88;;;9.25;100.00
75460;BME280;64039;53.060;9.342;2023-04-01T03:56:39;99116.53;;;9.22;100.00
75460;BME280;64039;53.060;9.342;2023-04-01T03:59:06;99116.53;;;9.28;100.00
75460;BME280;64039;53.060;9.342;2023-04-01T04:01:32;99119.97;;;9.29;100.00
75460;BME280;64039;53.060;9.342;2023-04-01T04:03:58;99113.91;;;9.16;100.00
75460;BME280;64039;53.060;9.342;2023-04-01T04:06:24;99116.50;;;9.21;100.00
75460;BME280;64039;53.060;9.342;2023-04-01T04:08:50;99120.84;;;9.17;100.00
75460;BME280;64039;53.060;9.342;2023-04-01T04:11:16;99123.47;;;9.19;100.00
75460;BME280;64039;53.060;9.342;2023-04-01T04:13:42;99118.25;;;9.19;100.00
75460;BME280;64039;53.060;9.342;2023-04-01T04:16:09;99115.66;;;9.17;100.00
75460;BME280;64039;53.060;9.342;2023-04-01T04:18:35;99120.00;;;9.12;100.00
75460;BME280;64039;53.060;9.342;2023-04-01T04:21:01;99108.75;;;9.13;100.00
75460;BME280;64039;53.060;9.342;2023-04-01T04:23:27;99120.84;;;9.06;100.00
75460;BME280;64039;53.060;9.342;2023-04-01T04:26:01;99121.72;;;9.15;100.00
75460;BME280;64039;53.060;9.342;2023-04-01T04:28:28;99127.75;;;9.18;100.00
75460;BME280;64039;53.060;9.342;2023-04-01T04:30:54;99131.25;;;9.19;100.00
75460;BME280;64039;53.060;9.342;2023-04-01T04:33:20;99129.50;;;9.16;100.00
75460;BME280;64039;53.060;9.342;2023-04-01T04:35:45;99131.22;;;9.11;100.00
75460;BME280;64039;53.060;9.342;2023-04-01T04:38:11;99139.91;;;9.08;100.00
75460;BME280;64039;53.060;9.342;2023-04-01T04:40:38;99139.88;;;9.16;100.00
75460;BME280;64039;53.060;9.342;2023-04-01T04:43:04;99139.03;;;9.11;100.00
75460;BME280;64039;53.060;9.342;2023-04-01T04:45:29;99140.75;;;9.07;100.00
75460;BME280;64039;53.060;9.342;2023-04-01T04:47:55;99148.53;;;9.09;100.00
75460;BME280;64039;53.060;9.342;2023-04-01T04:50:21;99146.81;;;9.06;100.00
75460;BME280;64039;53.060;9.342;2023-04-01T04:52:47;99153.75;;;9.10;100.00
75460;BME280;64039;53.060;9.342;2023-04-01T04:55:12;99152.88;;;9.04;100.00
75460;BME280;64039;53.060;9.342;2023-04-01T04:57:38;99154.59;;;9.11;100.00
75460;BME280;64039;53.060;9.342;2023-04-01T05:00:04;99151.16;;;9.10;100.00
75460;BME280;64039;53.060;9.342;2023-04-01T05:02:29;99158.94;;;9.01;100.00
75460;BME280;64039;53.060;9.342;2023-04-01T05:04:55;99160.63;;;9.01;100.00
75460;BME280;64039;53.060;9.342;2023-04-01T05:07:21;99158.91;;;9.07;100.00
75460;BME280;64039;53.060;9.342;2023-04-01T05:09:46;99162.38;;;9.06;100.00
75460;BME280;64039;53.060;9.342;2023-04-01T05:12:12;99164.09;;;9.03;100.00
75460;BME280;64039;53.060;9.342;2023-04-01T05:14:38;99167.53;;;8.99;100.00
75460;BME280;64039;53.060;9.342;2023-04-01T05:17:08;99171.88;;;9.09;100.00
75460;BME280;64039;53.060;9.342;2023-04-01T05:19:34;99167.56;;;9.12;100.00
75460;BME280;64039;53.060;9.342;2023-04-01T05:22:00;99177.06;;;9.04;100.00
75460;BME280;64039;53.060;9.342;2023-04-01T05:24:25;99172.75;;;9.08;100.00
75460;BME280;64039;53.060;9.342;2023-04-01T05:26:51;99172.75;;;9.17;100.00
75460;BME280;64039;53.060;9.342;2023-04-01T05:29:16;99175.34;;;9.23;100.00
75460;BME280;64039;53.060;9.342;2023-04-01T05:31:42;99177.09;;;9.20;100.00
75460;BME280;64039;53.060;9.342;2023-04-01T05:34:07;99177.09;;;9.18;100.00
75460;BME280;64039;53.060;9.342;2023-04-01T05:36:33;99181.41;;;9.25;100.00
75460;BME280;64039;53.060;9.342;2023-04-01T05:38:58;99177.94;;;9.28;100.00
75460;BME280;64039;53.060;9.342;2023-04-01T05:41:24;99185.75;;;9.30;100.00
75460;BME280;64039;53.060;9.342;2023-04-01T05:43:49;99182.28;;;9.23;100.00
75460;BME280;64039;53.060;9.342;2023-04-01T05:46:16;99189.22;;;9.24;100.00
75460;BME280;64039;53.060;9.342;2023-04-01T05:48:42;99191.81;;;9.28;100.00
75460;BME280;64039;53.060;9.342;2023-04-01T05:51:15;99189.22;;;9.22;100.00
75460;BME280;64039;53.060;9.342;2023-04-01T05:53:41;99194.41;;;9.32;100.00
75460;BME280;64039;53.060;9.342;2023-04-01T05:56:07;99190.09;;;9.31;100.00
75460;BME280;64039;53.060;9.342;2023-04-01T05:58:35;99199.59;;;9.33;100.00
75460;BME280;64039;53.060;9.342;2023-04-01T06:01:05;99193.53;;;9.40;100.00
75460;BME280;64039;53.060;9.342;2023-04-01T06:03:32;99202.19;;;9.41;100.00
75460;BME280;64039;53.060;9.342;2023-04-01T06:05:57;99195.28;;;9.41;100.00
75460;BME280;64039;53.060;9.342;2023-04-01T06:08:24;99201.34;;;9.39;100.00
75460;BME280;64039;53.060;9.342;2023-04-01T06:14:01;99206.50;;;9.53;100.00
75460;BME280;64039;53.060;9.342;2023-04-01T06:24:45;99222.09;;;9.59;100.00
75460;BME280;64039;53.060;9.342;2023-04-01T06:27:37;99220.38;;;9.46;100.00
75460;BME280;64039;53.060;9.342;2023-04-01T06:54:18;99244.59;;;9.68;100.00
75460;BME280;64039;53.060;9.342;2023-04-01T06:56:49;99241.16;;;9.64;100.00
75460;BME280;64039;53.060;9.342;2023-04-01T06:59:19;99250.66;;;9.82;100.00
75460;BME280;64039;53.060;9.342;2023-04-01T07:01:49;99248.91;;;9.89;100.00
75460;BME280;64039;53.060;9.342;2023-04-01T07:04:23;99254.97;;;9.97;100.00
75460;BME280;64039;53.060;9.342;2023-04-01T07:10:25;99249.75;;;10.16;100.00
75460;BME280;64039;53.060;9.342;2023-04-01T07:12:58;99257.53;;;10.22;100.00
75460;BME280;64039;53.060;9.342;2023-04-01T07:15:33;99261.81;;;10.29;100.00
75460;BME280;64039;53.060;9.342;2023-04-01T07:18:32;99270.50;;;10.31;100.00
75460;BME280;64039;53.060;9.342;2023-04-01T07:21:01;99278.31;;;10.28;100.00
75460;BME280;64039;53.060;9.342;2023-04-01T07:23:39;99272.22;;;10.29;100.00
75460;BME280;64039;53.060;9.342;2023-04-01T07:26:22;99278.28;;;10.33;100.00
75460;BME280;64039;53.060;9.342;2023-04-01T07:28:48;99287.81;;;10.34;100.00
75460;BME280;64039;53.060;9.342;2023-04-01T07:34:27;99290.47;;;10.26;100.00
75460;BME280;64039;53.060;9.342;2023-04-01T07:37:10;99292.19;;;10.27;100.00
75460;BME280;64039;53.060;9.342;2023-04-01T07:39:42;99291.31;;;10.27;100.00
75460;BME280;64039;53.060;9.342;2023-04-01T07:45:01;99296.53;;;10.25;100.00
75460;BME280;64039;53.060;9.342;2023-04-01T07:47:50;99306.06;;;10.21;100.00
75460;BME280;64039;53.060;9.342;2023-04-01T07:53:19;99306.94;;;10.41;100.00
75460;BME280;64039;53.060;9.342;2023-04-01T07:59:24;99315.59;;;10.40;100.00
75460;BME280;64039;53.060;9.342;2023-04-01T08:01:36;99326.00;;;10.43;100.00
75460;BME280;64039;53.060;9.342;2023-04-01T08:07:22;99326.00;;;10.44;100.00
75460;BME280;64039;53.060;9.342;2023-04-01T08:10:17;99322.53;;;10.37;100.00
75460;BME280;64039;53.060;9.342;2023-04-01T08:12:55;99330.34;;;10.39;100.00
75460;BME280;64039;53.060;9.342;2023-04-01T08:15:26;99329.47;;;10.38;100.00
75460;BME280;64039;53.060;9.342;2023-04-01T08:20:50;99338.97;;;10.55;100.00
75460;BME280;64039;53.060;9.342;2023-04-01T08:26:37;99343.28;;;10.68;100.00
75460;BME280;64039;53.060;9.342;2023-04-01T08:29:21;99346.69;;;10.83;100.00
75460;BME280;64039;53.060;9.342;2023-04-01T08:32:02;99348.38;;;10.96;100.00
75460;BME280;64039;53.060;9.342;2023-04-01T08:34:35;99354.34;;;11.22;100.00
75460;BME280;64039;53.060;9.342;2023-04-01T08:37:10;99355.19;;;11.28;100.00
75460;BME280;64039;53.060;9.342;2023-04-01T08:39:41;99352.56;;;11.33;100.00
75460;BME280;64039;53.060;9.342;2023-04-01T08:45:31;99356.78;;;11.48;100.00
75460;BME280;64039;53.060;9.342;2023-04-01T08:48:31;99362.03;;;11.46;100.00
75460;BME280;64039;53.060;9.342;2023-04-01T08:56:19;99368.28;;;11.07;100.00
75460;BME280;64039;53.060;9.342;2023-04-01T09:15:50;99390.97;;;10.81;100.00
75460;BME280;64039;53.060;9.342;2023-04-01T09:18:21;99389.19;;;10.91;100.00
75460;BME280;64039;53.060;9.342;2023-04-01T09:21:29;99392.63;;;10.99;100.00
75460;BME280;64039;53.060;9.342;2023-04-01T09:24:19;99404.78;;;10.97;100.00
75460;BME280;64039;53.060;9.342;2023-04-01T09:27:03;99403.94;;;10.97;100.00
75460;BME280;64039;53.060;9.342;2023-04-01T09:35:24;99418.69;;;10.87;100.00
75460;BME280;64039;53.060;9.342;2023-04-01T09:43:28;99425.50;;;11.27;100.00
75460;BME280;64039;53.060;9.342;2023-04-01T09:46:22;99426.41;;;11.23;100.00
75460;BME280;64039;53.060;9.342;2023-04-01T09:51:53;99441.09;;;11.39;100.00
75460;BME280;64039;53.060;9.342;2023-04-01T10:00:36;99450.72;;;9.71;100.00
75460;BME280;64039;53.060;9.342;2023-04-01T10:03:45;99454.16;;;9.53;100.00
75460;BME280;64039;53.060;9.342;2023-04-01T10:18:23;99483.31;;;9.00;100.00
75460;BME280;64039;53.060;9.342;2023-04-01T10:21:16;99485.81;;;8.84;100.00
75460;BME280;64039;53.060;9.342;2023-04-01T10:35:20;99502.38;;;9.06;100.00
75460;BME280;64039;53.060;9.342;2023-04-01T10:38:04;99516.19;;;8.98;100.00
75460;BME280;64039;53.060;9.342;2023-04-01T10:55:14;99528.94;;;8.70;100.00
75460;BME280;64039;53.060;9.342;2023-04-01T11:00:42;99535.09;;;8.84;100.00
75460;BME280;64039;53.060;9.342;2023-04-01T11:12:28;99556.53;;;8.60;100.00
75460;BME280;64039;53.060;9.342;2023-04-01T11:20:44;99572.78;;;8.43;100.00
75460;BME280;64039;53.060;9.342;2023-04-01T11:28:51;99584.41;;;8.84;100.00
75460;BME280;64039;53.060;9.342;2023-04-01T11:39:42;99596.13;;;8.46;100.00
75460;BME280;64039;53.060;9.342;2023-04-01T11:42:34;99611.59;;;8.37;100.00
75460;BME280;64039;53.060;9.342;2023-04-01T11:48:07;99610.53;;;8.16;100.00
75460;BME280;64039;53.060;9.342;2023-04-01T11:51:06;99624.50;;;8.29;100.00
75460;BME280;64039;53.060;9.342;2023-04-01T11:56:54;99621.84;;;8.25;100.00
75460;BME280;64039;53.060;9.342;2023-04-01T11:59:52;99638.38;;;8.36;100.00
75460;BME280;64039;53.060;9.342;2023-04-01T12:05:14;99636.44;;;8.16;100.00
75460;BME280;64039;53.060;9.342;2023-04-01T12:11:29;99651.03;;;8.11;100.00
75460;BME280;64039;53.060;9.342;2023-04-01T12:14:08;99651.09;;;8.13;100.00
75460;BME280;64039;53.060;9.342;2023-04-01T12:19:46;99662.31;;;8.15;100.00
75460;BME280;64039;53.060;9.342;2023-04-01T12:30:48;99692.06;;;8.45;100.00
75460;BME280;64039;53.060;9.342;2023-04-01T12:39:14;99690.56;;;7.93;100.00
75460;BME280;64039;53.060;9.342;2023-04-01T12:55:43;99724.63;;;8.21;100.00
75460;BME280;64039;53.060;9.342;2023-04-01T12:58:38;99724.25;;;7.93;100.00
75460;BME280;64039;53.060;9.342;2023-04-01T13:06:34;99732.91;;;7.95;100.00
75460;BME280;64039;53.060;9.342;2023-04-01T13:17:36;99754.72;;;7.54;100.00
75460;BME280;64039;53.060;9.342;2023-04-01T13:28:57;99774.81;;;7.68;100.00
75460;BME280;64039;53.060;9.342;2023-04-01T13:31:46;99780.09;;;7.74;100.00
75460;BME280;64039;53.060;9.342;2023-04-01T13:43:04;99797.06;;;7.55;100.00
75460;BME280;64039;53.060;9.342;2023-04-01T13:45:46;99799.50;;;7.47;100.00
75460;BME280;64039;53.060;9.342;2023-04-01T13:48:29;99808.91;;;7.42;100.00
75460;BME280;64039;53.060;9.342;2023-04-01T13:56:59;99824.75;;;7.61;100.00
75460;BME280;64039;53.060;9.342;2023-04-01T14:08:29;99833.16;;;7.47;100.00
75460;BME280;64039;53.060;9.342;2023-04-01T14:19:08;99854.16;;;7.17;100.00
75460;BME280;64039;53.060;9.342;2023-04-01T14:22:03;99855.09;;;7.20;100.00
75460;BME280;64039;53.060;9.342;2023-04-01T14:24:45;99863.94;;;7.32;100.00
75460;BME280;64039;53.060;9.342;2023-04-01T14:27:26;99869.66;;;7.15;100.00
75460;BME280;64039;53.060;9.342;2023-04-01T14:30:15;99861.59;;;7.00;100.00
75460;BME280;64039;53.060;9.342;2023-04-01T14:38:46;99884.94;;;7.03;100.00
75460;BME280;64039;53.060;9.342;2023-04-01T14:41:48;99890.47;;;6.79;100.00
75460;BME280;64039;53.060;9.342;2023-04-01T14:49:43;99904.88;;;6.67;100.00
75460;BME280;64039;53.060;9.342;2023-04-01T14:52:24;99912.56;;;6.64;100.00
75460;BME280;64039;53.060;9.342;2023-04-01T14:54:52;99916.69;;;6.56;100.00
75460;BME280;64039;53.060;9.342;2023-04-01T14:57:25;99921.09;;;6.60;100.00
75460;BME280;64039;53.060;9.342;2023-04-01T14:59:59;99925.34;;;6.58;100.00
75460;BME280;64039;53.060;9.342;2023-04-01T15:08:55;99941.00;;;6.64;100.00
75460;BME280;64039;53.060;9.342;2023-04-01T15:11:50;99943.88;;;6.76;100.00
75460;BME280;64039;53.060;9.342;2023-04-01T15:17:19;99963.09;;;6.50;100.00
75460;BME280;64039;53.060;9.342;2023-04-01T15:20:22;99961.44;;;6.53;100.00
75460;BME280;64039;53.060;9.342;2023-04-01T15:23:06;99964.16;;;6.59;100.00
75460;BME280;64039;53.060;9.342;2023-04-01T15:28:16;99974.47;;;6.56;100.00
75460;BME280;64039;53.060;9.342;2023-04-01T15:33:42;99994.34;;;6.24;100.00
75460;BME280;64039;53.060;9.342;2023-04-01T15:39:14;100000.56;;;6.32;100.00
75460;BME280;64039;53.060;9.342;2023-04-01T15:42:02;100009.16;;;6.31;100.00
75460;BME280;64039;53.060;9.342;2023-04-01T15:46:57;100012.22;;;6.50;100.00
75460;BME280;64039;53.060;9.342;2023-04-01T15:49:33;100017.94;;;6.38;100.00
75460;BME280;64039;53.060;9.342;2023-04-01T15:52:42;100018.50;;;6.26;100.00
75460;BME280;64039;53.060;9.342;2023-04-01T15:55:44;100039.09;;;6.23;100.00
75460;BME280;64039;53.060;9.342;2023-04-01T15:58:48;100033.78;;;6.17;100.00
75460;BME280;64039;53.060;9.342;2023-04-01T16:04:32;100049.78;;;6.35;100.00
75460;BME280;64039;53.060;9.342;2023-04-01T16:07:30;100061.84;;;6.36;100.00
75460;BME280;64039;53.060;9.342;2023-04-01T16:10:21;100062.03;;;6.10;100.00
75460;BME280;64039;53.060;9.342;2023-04-01T16:15:57;100068.03;;;5.79;100.00
75460;BME280;64039;53.060;9.342;2023-04-01T16:21:13;100088.28;;;5.65;100.00
75460;BME280;64039;53.060;9.342;2023-04-01T16:24:00;100081.88;;;5.52;100.00
75460;BME280;64039;53.060;9.342;2023-04-01T16:26:37;100076.94;;;5.60;100.00
75460;BME280;64039;53.060;9.342;2023-04-01T16:29:30;100097.63;;;5.61;100.00
75460;BME280;64039;53.060;9.342;2023-04-01T16:35:22;100107.94;;;5.60;100.00
75460;BME280;64039;53.060;9.342;2023-04-01T16:37:55;100111.34;;;5.59;100.00
75460;BME280;64039;53.060;9.342;2023-04-01T16:40:50;100117.31;;;5.58;100.00
75460;BME280;64039;53.060;9.342;2023-04-01T16:43:45;100122.16;;;5.47;100.00
75460;BME280;64039;53.060;9.342;2023-04-01T16:48:59;100126.94;;;5.34;100.00
75460;BME280;64039;53.060;9.342;2023-04-01T16:51:40;100137.31;;;5.36;100.00
75460;BME280;64039;53.060;9.342;2023-04-01T16:59:38;100154.78;;;5.17;100.00
75460;BME280;64039;53.060;9.342;2023-04-01T17:04:38;100175.47;;;5.19;100.00
75460;BME280;64039;53.060;9.342;2023-04-01T17:07:20;100169.31;;;5.14;100.00
75460;BME280;64039;53.060;9.342;2023-04-01T17:21:38;100206.03;;;5.07;100.00
75460;BME280;64039;53.060;9.342;2023-04-01T17:23:51;100203.03;;;4.94;100.00
75460;BME280;64039;53.060;9.342;2023-04-01T17:26:28;100207.22;;;4.91;100.00
75460;BME280;64039;53.060;9.342;2023-04-01T17:29:16;100226.81;;;4.85;100.00
75460;BME280;64039;53.060;9.342;2023-04-01T17:32:07;100214.59;;;4.80;100.00
75460;BME280;64039;53.060;9.342;2023-04-01T17:35:19;100236.34;;;4.88;100.00
75460;BME280;64039;53.060;9.342;2023-04-01T17:37:54;100247.44;;;4.85;100.00
75460;BME280;64039;53.060;9.342;2023-04-01T17:45:54;100260.25;;;4.84;100.00
75460;BME280;64039;53.060;9.342;2023-04-01T17:59:38;100291.97;;;4.81;100.00
75460;BME280;64039;53.060;9.342;2023-04-01T18:13:32;100337.03;;;4.44;100.00
75460;BME280;64039;53.060;9.342;2023-04-01T18:19:01;100352.31;;;4.39;100.00
75460;BME280;64039;53.060;9.342;2023-04-01T18:24:18;100371.81;;;4.33;100.00
75460;BME280;64039;53.060;9.342;2023-04-01T18:27:02;100367.91;;;4.21;100.00
75460;BME280;64039;53.060;9.342;2023-04-01T18:37:34;100400.50;;;3.98;100.00
75460;BME280;64039;53.060;9.342;2023-04-01T18:40:28;100408.56;;;4.07;100.00
75460;BME280;64039;53.060;9.342;2023-04-01T18:43:08;100412.19;;;4.11;100.00
75460;BME280;64039;53.060;9.342;2023-04-01T18:45:44;100420.81;;;4.13;100.00
75460;BME280;64039;53.060;9.342;2023-04-01T18:48:40;100432.88;;;4.14;100.00
75460;BME280;64039;53.060;9.342;2023-04-01T18:51:17;100436.97;;;4.09;100.00
75460;BME280;64039;53.060;9.342;2023-04-01T18:54:01;100441.00;;;4.02;100.00
75460;BME280;64039;53.060;9.342;2023-04-01T18:56:37;100443.63;;;4.04;100.00
75460;BME280;64039;53.060;9.342;2023-04-01T18:59:27;100450.63;;;4.06;100.00
75460;BME280;64039;53.060;9.342;2023-04-01T19:04:57;100446.69;;;3.95;100.00
75460;BME280;64039;53.060;9.342;2023-04-01T19:07:52;100470.84;;;3.97;100.00
75460;BME280;64039;53.060;9.342;2023-04-01T19:13:10;100471.84;;;4.01;100.00
75460;BME280;64039;53.060;9.342;2023-04-01T19:15:49;100483.41;;;3.91;100.00
75460;BME280;64039;53.060;9.342;2023-04-01T19:27:08;100502.25;;;4.09;100.00
75460;BME280;64039;53.060;9.342;2023-04-01T19:38:19;100524.63;;;3.91;100.00
75460;BME280;64039;53.060;9.342;2023-04-01T19:40:55;100529.84;;;3.73;100.00
75460;BME280;64039;53.060;9.342;2023-04-01T19:43:44;100536.41;;;3.66;100.00
75460;BME280;64039;53.060;9.342;2023-04-01T19:46:29;100528.84;;;3.69;100.00
75460;BME280;64039;53.060;9.342;2023-04-01T19:59:53;100577.53;;;3.65;100.00
75460;BME280;64039;53.060;9.342;2023-04-01T20:08:01;100597.22;;;3.44;100.00
75460;BME280;64039;53.060;9.342;2023-04-01T20:16:06;100604.56;;;3.37;100.00
75460;BME280;64039;53.060;9.342;2023-04-01T20:18:55;100616.50;;;3.35;100.00
75460;BME280;64039;53.060;9.342;2023-04-01T20:21:42;100618.75;;;3.28;100.00
75460;BME280;64039;53.060;9.342;2023-04-01T20:24:26;100630.06;;;3.32;100.00
75460;BME280;64039;53.060;9.342;2023-04-01T20:27:03;100634.66;;;3.20;100.00
75460;BME280;64039;53.060;9.342;2023-04-01T20:32:57;100640.06;;;3.26;100.00
75460;BME280;64039;53.060;9.342;2023-04-01T20:35:39;100654.53;;;3.24;100.00
75460;BME280;64039;53.060;9.342;2023-04-01T20:41:28;100661.09;;;3.35;100.00
75460;BME280;64039;53.060;9.342;2023-04-01T20:44:09;100670.59;;;3.36;100.00
75460;BME280;64039;53.060;9.342;2023-04-01T20:46:55;100670.88;;;3.24;100.00
75460;BME280;64039;53.060;9.342;2023-04-01T20:57:18;100685.13;;;2.99;100.00
75460;BME280;64039;53.060;9.342;2023-04-01T21:08:16;100707.28;;;2.97;100.00
75460;BME280;64039;53.060;9.342;2023-04-01T21:10:51;100715.06;;;2.99;100.00
75460;BME280;64039;53.060;9.342;2023-04-01T21:43:06;100776.16;;;2.70;100.00
75460;BME280;64039;53.060;9.342;2023-04-01T21:45:44;100781.13;;;2.67;100.00
75460;BME280;64039;53.060;9.342;2023-04-01T21:51:14;100799.13;;;2.67;100.00
75460;BME280;64039;53.060;9.342;2023-04-01T22:05:21;100834.59;;;2.41;100.00